Onweer radar Meer informatie blitzortung!


Regen radar Meer informatie rain snow radar


Andere websites:

Template documentation
and downloads

And another site

Weather-Template Info-Forum

Webcam-Havenmond

Webcam-Havenkantoor

Webcam-Werkhaven

Webcam-Westhaven



Het weer levert geen direct gevaar op.    Er zijn geen waarschuwingen afgegeven.

METAR rapporten vliegvelden

   
EBAW - Antwerp
Gewijzigd: 18-10-2018 00:50
Bewolking  
Bewolking  
   Wind: Noorden 7.4 km/h
Wind: Noorden 7.4 km/h
Temperatuur: 14°C
Dauwpunt: 11°C
Vochtigheid: 82%
Barometer: 1022 hPa
Bewolking: Bewolking
Zicht: meer dan 10 km
Bewolking: Bewolking 2900 ft
EBAW 172250Z AUTO 36004KT 9999 // OVC029/// 14/11 Q1022
EBLG - Li├Ęge
Gewijzigd: 18-10-2018 00:50
Nevel, Gedeeltelijk bewolkt  
Nevel, Gedeeltelijk bewolkt  
   Wind: Noorden 5.6 km/h
Wind: Noorden 5.6 km/h
Temperatuur: 11°C
Dauwpunt: 11°C
Vochtigheid: 100%
Barometer: 1021 hPa
Bewolking: Gedeeltelijk bewolkt
Zicht: 3 km
Bewolking: Gedeeltelijk bewolkt
EBLG 172250Z 36003KT 3000 BR NSC 11/11 Q1021 TEMPO 2000 BR
EBCV - Mons/Bergen
Gewijzigd: 18-10-2018 00:55
Licht bewolkt  
Licht bewolkt  
   Wind: NNO 7.4 km/h
Wind: NNO 7.4 km/h
Temperatuur: 12°C
Dauwpunt: 11°C
Vochtigheid: 94%
Barometer: 1022 hPa
Bewolking: Licht bewolkt
Zicht: 9 km
Bewolking: Licht bewolkt 3100 ft
EBCV 172255Z AUTO 02004KT 9000 FEW031/// 12/11 Q1022 BLU
EHBK - Maastricht
Gewijzigd: 18-10-2018 00:55
Gedeeltelijk bewolkt  
Gedeeltelijk bewolkt  
   Wind: Noorden 9.3 km/h
Wind: Noorden 9.3 km/h
Temperatuur: 12°C
Dauwpunt: 12°C
Vochtigheid: 100%
Barometer: 1021 hPa
Bewolking: Gedeeltelijk bewolkt
Zicht: 6 km
Bewolking: Gedeeltelijk bewolkt
EHBK 172255Z AUTO 36005KT 310V040 6000 NSC 12/12 Q1021
ELLX - Luxemburg
Gewijzigd: 18-10-2018 00:50
Helder  
Helder  
   Wind: NNO 16.7 km/h
Wind: NNO 16.7 km/h
Temperatuur: 15°C
Dauwpunt: 10°C
Vochtigheid: 72%
Barometer: 1020 hPa
Bewolking: Helder
Zicht: meer dan 10 km
Bewolking: Helder
ELLX 172250Z AUTO 03009KT 9999 NCD 15/10 Q1020 NOSIG
EBOS - Oostende
Gewijzigd: 18-10-2018 00:50
Grotendeels bewolkt  
Grotendeels bewolkt  
   Wind: NNO 13 km/h
Wind: NNO 13 km/h
Temperatuur: 14°C
Dauwpunt: 10°C
Vochtigheid: 77%
Barometer: 1023 hPa
Bewolking: Grotendeels bewolkt
Zicht: meer dan 10 km
Bewolking: Grotendeels bewolkt 1800 ft
EBOS 172250Z 02007KT 350V050 9999 BKN018 14/10 Q1023 TEMPO BKN014

Script ontwikkeld door  Saratoga-weather.org Aangepast voor de template door  Weerstation Leuven

U vindt ons ook hier:

Het Weer Aktueel

European Weather Network

WeatherCloud

Weather Underground

Benelux Weer Netwerk

AWEKAS

Apparatuur in gebruik:

Weerstation
Davis VP2

Weerprogramma
Meteohub

Weercomputer
My Computer

Webleverancier
My provider

Davis VP2

Meteohub

My Computer

My provider